Ophir, California
Current Conditions -  °F | °C
As of 6:35 PM on Wednesday 22 Oct 2014 (Local Time) from KAUN Reporting Station
Clear Clear  
Wind Chill: 63°   Ceiling: Unl
Heat Index: 63°   Visibility: 10mi
Dew Point: 41°   Wind: 0mph
Humidity: 45%   Direction: NA
Pressure: 30.04"   Gusts: NA
Location:  38.9102°N, 121.092°W
Report Text: KAUN 230135Z AUTO 00000KT 10SM CLR 17/05 A3004 RMK AO1
Loading
Personal Weather Stations






























Interactive Weather Map
Tropical Storm Tracking
New forecast layout! Learn more

10-Day Weather Forecast

Advertisements
Track Severe Weather on mobile